• Join FlightAware (Why Join?)
  • Login
  • US Flag 
06:32PM EDT


 

Airport Tracker/Info


-or-


 

Live Flight TrackerFlight Track Log ✈ DAL1981 ✈ 04-May-2013 ✈ KALB - KATL

Flight Track Log - Related Links

Times and Time Zones

All times are in EDT time to prevent confusion due to time zone crossing. See the DAL1981 flight status page for this flight to view local times or setup timezone preferences in your user account.

Time Position Orientation Groundspeed Altitude Reporting Facility
EDT Latitude Longitude Course Direction KTS MPH feet Rate Location/Type
06:14AM 42.7236 -73.8081 180° South 150 173 1,500  Level Boston Center
06:15AM 42.6839 -73.8069 179° South 217 250 2,500 2,040 Climbing Boston Center
06:15AM 42.6522 -73.8375 215° Southwest 272 313 4,200 2,820 Climbing Boston Center
06:16AM 42.6344 -73.9386 257° West 272 313 7,100 2,940 Climbing Boston Center
06:17AM 42.5024 -74.1467 200° South  Level Estimated
06:17AM 42.6161 -74.0456 257° West 284 327 10,100  Level Boston Center
06:18AM 42.4200 -74.2610 198° South  Level Estimated
06:18AM 42.5653 -74.1175 226° Southwest 292 336 11,900  Level Boston Center
06:19AM 42.3374 -74.3751 180° South  Level Estimated
06:19AM 42.4647 -74.1372 188° South 316 364 14,600  Level Boston Center
06:20AM 42.3819 -74.0983 161° South 336 387 16,700 1,680 Climbing Boston Center
06:21AM 42.2744 -74.0478 161° South 363 418 18,000 1,680 Climbing Boston Center
06:22AM 42.1661 -74.0394 177° South 387 445 20,100 1,860 Climbing Boston Center
06:23AM 42.0492 -74.0478 183° South 400 460 21,800 1,500 Climbing Boston Center
06:24AM 41.9350 -74.0169 169° South 413 475 23,200 1,020 Climbing Boston Center
06:25AM 41.8214 -73.9472 155° Southeast 425 489 23,900 660 Climbing Boston Center
06:26AM 41.7161 -73.8781 154° Southeast 455 524 24,600 1,500 Climbing Boston Center
06:29AM 41.4047 -73.8442 175° South 448 516 29,000 1,680 Climbing New York Center
06:30AM 41.3181 -73.9783 229° Southwest 438 504 30,400 1,440 Climbing New York Center
06:31AM 41.2311 -74.1092 229° Southwest 459 528 31,900 1,080 Climbing New York Center
06:32AM 41.1467 -74.2208 225° Southwest 465 535 32,700 960 Climbing New York Center
06:33AM 41.0594 -74.3483 228° Southwest 478 550 33,900 660 Climbing New York Center
06:34AM 40.9744 -74.4703 227° Southwest 473 544 34,000  Climbing New York Center
06:35AM 40.8914 -74.5919 228° Southwest 467 537 34,000  Level New York Center
06:36AM 40.8061 -74.7133 227° Southwest 456 525 34,000  Level New York Center
06:37AM 40.7250 -74.8372 229° Southwest 450 518 34,000  Level New York Center
06:38AM 40.6414 -74.9636 229° Southwest 456 525 34,000  Level New York Center
06:39AM 40.5578 -75.0869 228° Southwest 456 525 34,000  Level New York Center
06:40AM 40.4803 -75.2103 230° Southwest 456 525 34,000  Level New York Center
06:41AM 40.4022 -75.3389 231° Southwest 456 525 34,000  Level New York Center
06:42AM 40.3222 -75.4669 231° Southwest 456 525 34,000  Level New York Center
06:43AM 40.2442 -75.5922 231° Southwest 456 525 34,000  Level New York Center
06:44AM 40.1594 -75.7275 231° Southwest 456 525 34,000  Level New York Center
06:45AM 40.0792 -75.8522 230° Southwest 456 525 34,000  Level New York Center
06:47AM 39.9208 -76.1028 231° Southwest 457 526 34,000  Level Washington Center
06:48AM 39.8411 -76.2211 229° Southwest 445 512 34,000  Level Washington Center
06:49AM 39.7614 -76.3444 230° Southwest 450 518 34,000  Level Washington Center
06:50AM 39.6833 -76.4650 230° Southwest 450 518 34,000  Level Washington Center
06:51AM 39.5906 -76.5986 228° Southwest 455 524 34,000  Level Washington Center
06:52AM 39.5083 -76.7186 228° Southwest 455 524 34,000  Level Washington Center
06:53AM 39.4300 -76.8408 230° Southwest 455 524 34,000  Level Washington Center
06:54AM 39.3494 -76.9631 230° Southwest 455 524 34,000  Level Washington Center
06:55AM 39.2731 -77.0850 231° Southwest 455 524 34,000  Level Washington Center
06:56AM 39.1944 -77.2064 230° Southwest 450 518 34,000  Level Washington Center
06:57AM 39.1178 -77.3253 230° Southwest 450 518 34,000  Level Washington Center
06:58AM 39.0389 -77.4436 229° Southwest 450 518 34,000  Level Washington Center
06:59AM 38.9578 -77.5617 229° Southwest 445 512 34,000  Level Washington Center
07:00AM 38.8806 -77.6822 231° Southwest 445 512 34,000  Level Washington Center
07:01AM 38.8078 -77.7894 229° Southwest 445 512 34,000  Level Washington Center
07:02AM 38.7286 -77.9069 229° Southwest 445 512 34,000  Level Washington Center
07:03AM 38.6511 -78.0242 230° Southwest 445 512 34,000  Level Washington Center
07:04AM 38.5736 -78.1383 229° Southwest 440 506 34,000  Level Washington Center
07:05AM 38.4942 -78.2550 229° Southwest 440 506 34,000  Level Washington Center
07:06AM 38.4186 -78.3689 230° Southwest 434 499 34,000  Level Washington Center
07:07AM 38.3386 -78.4850 229° Southwest 434 499 34,000  Level Washington Center
07:08AM 38.2650 -78.5958 230° Southwest 434 499 34,000  Level Washington Center
07:09AM 38.1850 -78.7089 228° Southwest 429 494 34,000  Level Washington Center
07:10AM 38.0961 -78.8319 227° Southwest 429 494 34,000  Level Washington Center
07:11AM 38.0158 -78.9469 228° Southwest 429 494 34,000  Level Washington Center
07:12AM 37.9356 -79.0594 228° Southwest 429 494 34,000  Level Washington Center
07:13AM 37.8569 -79.1714 228° Southwest 429 494 34,000  Level Washington Center
07:14AM 37.7808 -79.2756 227° Southwest 429 494 34,000  Level Washington Center
07:15AM 37.6961 -79.3842 225° Southwest 429 494 34,000  Level Washington Center
07:16AM 37.6067 -79.5083 228° Southwest 439 505 34,000  Level Washington Center
07:17AM 37.5344 -79.6092 228° Southwest 439 505 34,000  Level Washington Center
07:18AM 37.4469 -79.7278 227° Southwest 434 499 34,000  Level Washington Center
07:19AM 37.3744 -79.8308 229° Southwest 441 507 34,000  Level Washington Center
07:20AM 37.2933 -79.9411 227° Southwest 441 507 34,000  Level Washington Center
07:22AM 37.1253 -80.1681 227° Southwest 425 489 34,000  Level Atlanta Center
07:23AM 37.0433 -80.2786 227° Southwest 425 489 34,000  Level Atlanta Center
07:24AM 36.9653 -80.3836 227° Southwest 430 495 34,000  Level Atlanta Center
07:25AM 36.8850 -80.4911 227° Southwest 430 495 34,000  Level Atlanta Center
07:26AM 36.8128 -80.5878 227° Southwest 430 495 34,000  Level Atlanta Center
07:27AM 36.7364 -80.6919 228° Southwest 425 489 34,000  Level Atlanta Center
07:28AM 36.6536 -80.7992 226° Southwest 425 489 34,000  Level Atlanta Center
07:29AM 36.5750 -80.9031 227° Southwest 425 489 34,000  Level Atlanta Center
07:30AM 36.4922 -81.0097 226° Southwest 425 489 34,000  Level Atlanta Center
07:31AM 36.4053 -81.1239 227° Southwest 430 495 34,000  Level Atlanta Center
07:32AM 36.3222 -81.2325 227° Southwest 430 495 34,000  Level Atlanta Center
07:33AM 36.2433 -81.3356 227° Southwest 430 495 34,000  Level Atlanta Center
07:34AM 36.1622 -81.4439 227° Southwest 430 495 34,000  Level Atlanta Center
07:35AM 36.0811 -81.5492 226° Southwest 430 495 34,000  Level Atlanta Center
07:36AM 35.9997 -81.6544 226° Southwest 430 495 34,000  Level Atlanta Center
07:37AM 35.9183 -81.7619 227° Southwest 430 495 34,000  Level Atlanta Center
07:38AM 35.8408 -81.8664 228° Southwest 423 487 34,000  Level Atlanta Center
07:39AM 35.7572 -81.9686 225° Southwest 418 481 34,000  Level Atlanta Center
07:40AM 35.6753 -82.0728 226° Southwest 425 489 34,000  Level Atlanta Center
07:41AM 35.5914 -82.1744 225° Southwest 425 489 34,000  Level Atlanta Center
07:42AM 35.5053 -82.2733 223° Southwest 430 495 34,000 -120 Level Atlanta Center
07:43AM 35.4189 -82.3694 222° Southwest 425 489 33,800 -1,020 Descending Atlanta Center
07:44AM 35.3328 -82.4681 223° Southwest 425 489 32,000 -1,440 Descending Atlanta Center
07:45AM 35.2525 -82.5561 222° Southwest 425 489 31,000 -900 Descending Atlanta Center
07:46AM 35.1536 -82.6644 222° Southwest 437 503 30,300 -900 Descending Atlanta Center
07:47AM 35.0647 -82.7622 222° Southwest 437 503 29,200 -1,320 Descending Atlanta Center
07:48AM 34.9844 -82.8547 223° Southwest 443 510 27,700 -1,380 Descending Atlanta Center
07:49AM 34.8831 -82.9678 222° Southwest 443 510 26,500 -1,140 Descending Atlanta Center
07:50AM 34.7922 -83.0675 222° Southwest 448 516 25,500 -900 Descending Atlanta Center
07:51AM 34.7114 -83.1594 223° Southwest 442 509 24,700 -780 Descending Atlanta Center
07:52AM 34.6244 -83.2561 222° Southwest 442 509 24,000 -360 Descending Atlanta Center
07:53AM 34.5333 -83.3531 221° Southwest 432 497 24,000 -60 Level Atlanta Center
07:54AM 34.4461 -83.4519 223° Southwest 432 497 23,900 -1,140 Descending Atlanta Center
07:55AM 34.3608 -83.5456 222° Southwest 432 497 21,800 -2,460 Descending Atlanta Center
07:56AM 34.2758 -83.6367 222° Southwest 421 484 19,000 -2,700 Descending Atlanta Center
07:57AM 34.1906 -83.7325 223° Southwest 413 475 16,500 -2,460 Descending Atlanta Center
07:58AM 34.1092 -83.8181 221° Southwest 388 447 14,100 -1,500 Descending Atlanta Center
07:59AM 34.0342 -83.9008 222° Southwest 375 432 13,500 -720 Descending Atlanta Center
07:59AM 34.0000 -83.9333 218° Southwest 369 425 13,200 -420 Descending Atlanta TRACON
08:00AM 33.9333 -84.0167 226° Southwest 369 425 13,000 -120 Descending Atlanta TRACON
08:01AM 33.8833 -84.1167 239° Southwest 360 414 13,000  Level Atlanta TRACON
08:02AM 33.8167 -84.2000 226° Southwest 302 348 13,000 -240 Level Atlanta TRACON
08:03AM 33.7833 -84.2667 239° Southwest 281 323 12,600 -1,320 Descending Atlanta TRACON
08:04AM 33.7333 -84.3500 234° Southwest 276 318 10,400 -2,220 Descending Atlanta TRACON
08:05AM 33.7333 -84.4500 270° West 288 331 8,200 -1,740 Descending Atlanta TRACON
08:06AM 33.7333 -84.5333 270° West 287 330 7,000 -1,500 Descending Atlanta TRACON
08:07AM 33.7333 -84.6333 270° West 294 338 5,200 -1,020 Descending Atlanta TRACON
08:08AM 33.7333 -84.7333 270° West 262 302 5,000 -120 Descending Atlanta TRACON
08:09AM 33.7333 -84.8000 270° West 223 257 5,000  Level Atlanta TRACON
08:10AM 33.7333 -84.8833 270° West 230 265 5,000  Level Atlanta TRACON
08:11AM 33.7000 -84.9167 220° Southwest 187 215 5,000  Level Atlanta TRACON
08:12AM 33.6667 -84.9000 157° South 158 182 5,000  Level Atlanta TRACON
08:13AM 33.6500 -84.8500 112° Southeast 148 170 5,000  Level Atlanta TRACON
08:14AM 33.6500 -84.8167 90° East 134 154 5,000  Level Atlanta TRACON
08:15AM 33.6500 -84.7667 90° East 135 155 5,000  Level Atlanta TRACON
08:16AM 33.6500 -84.7167 90° East 137 158 5,000 -420 Level Atlanta TRACON
08:17AM 33.6500 -84.6833 90° East 132 152 4,200 -540 Descending Atlanta TRACON
08:18AM 33.6500 -84.6333 90° East 130 150 4,000 -300 Descending Atlanta TRACON
08:19AM 33.6500 -84.5833 90° East 130 150 3,600 -420 Descending Atlanta TRACON